首页
METAR-TAF:

METAR-TAF

机场 :

Quentin Aanenson Field

Luverne, 明尼蘇達州, 美国

纬度: 43-37-16N, 经度: 096-12-58W, 海拔: 436米

当前天气观测

该预报发布于20分钟前的10:57 UTC
风速4节,风向东南
温度 20°C
湿度 83%
气压 1015 hPa
能見度: 16.1公里
天空无云
附近有雷暴

METAR: KLYV 271057Z AUTO 14004KT 10SM VCTS CLR 20/17 A2998 RMK AO2 LTG DSNT W THRU N

时间: 06:17 (11:17 UTC)


TAF: 丢失

超过4000个机场的气象观测和天气预报(METAR&TAF报告)。

可查询的气象台以黄色和红色小点在地图上表示。

将鼠标移到小点上方,可查看气象台名称。

然后点击查看天气观测和预报。

如需切换地图:点击带黑十字的绿色按钮放大地图;点击带横线的绿色按钮缩小地图;或者点击绿色箭头查看邻近地区的地图。


METAR-TAF: